Argent Gerbera — V7UC4 — position and weather

sailwx.info

Track history (hours):
 
Tides and Currents Weather Stations Pressure Air Temp Water Temp Dewpoint Dewpoint Depression Visibility Wind Speed Wind Dir Waves Ship Positions

Argent Gerbera

Last reported at 2016-Jun-23 03:34 UTC. Time now 2016-Jul-02 00:27 UTC.
Position N 38°41' E 121°57'.
Warning: this ship's position is 8 days out of date.

Length 175 m; draft 6.5 m.

Type: Ship (hazmat cat B). MMSI: 538003929.

Date/timePositionNaut miles runAvg speedWind from/ knotsBaromVisibWave heightAir tempDewpointWater temp
2016-Jun-23 03:34N 38°41' E 121°57'1313.3
2016-Jun-23 02:34N 38°51' E 121°45'7 7.2
2016-Jun-23 01:33N 38°57' E 121°41'1 0.0
2016-Jun-21 05:33N 38°58' E 121°40'9 9.0
2016-Jun-21 04:33N 38°51' E 121°48'7 6.7
2016-Jun-21 03:33N 38°48' E 121°56'8 0.3
2016-Jun-19 19:26N 38°55' E 122°02'0 0.0
2016-Jun-19 18:29N 38°55' E 122°02'0 0.0
2016-Jun-19 11:27N 38°55' E 122°02'6 6.7
2016-Jun-19 10:33N 38°50' E 121°58'1515.4
2016-Jun-19 09:33N 38°37' E 121°46'1615.5
2016-Jun-19 08:33N 38°28' E 121°30'1515.5
2016-Jun-19 07:33N 38°26' E 121°11'2014.8
2016-Jun-19 06:14N 38°38' E 120°51'1014.4
2016-Jun-19 05:32N 38°48' E 120°50'  
2016-Jun-16 23:29N 38°29' E 121°18'1514.9
2016-Jun-16 22:29N 38°24' E 121°36'7114.5
2016-Jun-16 17:32N 37°55' E 122°59'1414.6
2016-Jun-16 16:33N 37°45' E 123°12'1414.3
2016-Jun-16 15:33N 37°37' E 123°26'1414.4
2016-Jun-16 14:33N 37°23' E 123°33'1514.6
2016-Jun-16 13:33N 37°11' E 123°42'1514.7
2016-Jun-16 12:32N 36°57' E 123°51'1714.7
2016-Jun-16 11:24N 36°41' E 123°53'1315.2
2016-Jun-16 10:33N 36°28' E 123°52'1615.1
2016-Jun-16 09:28N 36°11' E 123°53'  
Track history (hours):
 
Tides and Currents Weather Stations Pressure Air Temp Water Temp Dewpoint Dewpoint Depression Visibility Wind Speed Wind Dir Waves Ship Positions

Argent Gerbera

Last reported at 2016-Jun-23 03:34 UTC. Time now 2016-Jul-02 00:27 UTC.
Position N 38°41' E 121°57'.
Warning: this ship's position is 8 days out of date.

Length 175 m; draft 6.5 m.

Type: Ship (hazmat cat B). MMSI: 538003929.

Date/timePositionNaut miles runAvg speedWind from/ knotsBaromVisibWave heightAir tempDewpointWater temp
2016-Jun-23 03:34N 38°41' E 121°57'1313.3
2016-Jun-23 02:34N 38°51' E 121°45'7 7.2
2016-Jun-23 01:33N 38°57' E 121°41'1 0.0
2016-Jun-21 05:33N 38°58' E 121°40'9 9.0
2016-Jun-21 04:33N 38°51' E 121°48'7 6.7
2016-Jun-21 03:33N 38°48' E 121°56'8 0.3
2016-Jun-19 19:26N 38°55' E 122°02'0 0.0
2016-Jun-19 18:29N 38°55' E 122°02'0 0.0
2016-Jun-19 11:27N 38°55' E 122°02'6 6.7
2016-Jun-19 10:33N 38°50' E 121°58'1515.4
2016-Jun-19 09:33N 38°37' E 121°46'1615.5
2016-Jun-19 08:33N 38°28' E 121°30'1515.5
2016-Jun-19 07:33N 38°26' E 121°11'2014.8
2016-Jun-19 06:14N 38°38' E 120°51'1014.4
2016-Jun-19 05:32N 38°48' E 120°50'  
2016-Jun-16 23:29N 38°29' E 121°18'1514.9
2016-Jun-16 22:29N 38°24' E 121°36'7114.5
2016-Jun-16 17:32N 37°55' E 122°59'1414.6
2016-Jun-16 16:33N 37°45' E 123°12'1414.3
2016-Jun-16 15:33N 37°37' E 123°26'1414.4
2016-Jun-16 14:33N 37°23' E 123°33'1514.6
2016-Jun-16 13:33N 37°11' E 123°42'1514.7
2016-Jun-16 12:32N 36°57' E 123°51'1714.7
2016-Jun-16 11:24N 36°41' E 123°53'1315.2
2016-Jun-16 10:33N 36°28' E 123°52'1615.1
2016-Jun-16 09:28N 36°11' E 123°53'  

Dump ship's entire track history